Time;durP1;ratioP1;P1;durP2;ratioP2;P2;SDS_P1;SDS_P2;PMS_P1;PMS_P2;Temp;Humidity;BMP_temperature;BMP_pressure;BME280_temperature;BME280_humidity;BME280_pressure;Samples;Min_cycle;Max_cycle;Signal;HPM_P1;HPM_P2
2022/12/20 00:01:42;;;;;;;7.38;4.47;;;9.40;99.90;;;;;;5133497;27;20104;-63
2022/12/20 00:04:11;;;;;;;7.72;4.60;;;9.50;99.90;;;;;;5131904;27;20043;-62
2022/12/20 00:06:40;;;;;;;7.25;3.97;;;9.40;99.90;;;;;;5129726;27;20120;-62
2022/12/20 00:09:08;;;;;;;7.15;3.85;;;9.40;99.90;;;;;;5095825;28;20074;-62
2022/12/20 00:11:37;;;;;;;11.27;4.18;;;9.30;99.90;;;;;;5096521;27;20069;-63
2022/12/20 00:14:04;;;;;;;7.03;3.58;;;9.40;99.90;;;;;;5113940;27;20109;-63
2022/12/20 00:16:31;;;;;;;7.15;3.80;;;9.40;99.90;;;;;;5096506;27;20437;-63
2022/12/20 00:19:00;;;;;;;6.45;4.13;;;9.30;99.90;;;;;;5095917;28;20089;-62
2022/12/20 00:21:29;;;;;;;6.20;3.65;;;9.30;99.90;;;;;;5113875;27;20441;-62
2022/12/20 00:23:57;;;;;;;6.93;4.20;;;9.30;99.90;;;;;;5130972;27;20539;-62
2022/12/20 00:26:27;;;;;;;5.78;3.55;;;9.30;99.90;;;;;;5115331;27;20054;-63
2022/12/20 00:28:54;;;;;;;6.77;3.90;;;9.30;99.90;;;;;;5114788;27;20104;-62
2022/12/20 00:31:24;;;;;;;7.03;4.70;;;9.30;99.90;;;;;;5096133;28;20043;-62
2022/12/20 00:33:52;;;;;;;9.23;3.95;;;9.30;99.90;;;;;;5096139;28;20116;-63
2022/12/20 00:36:20;;;;;;;7.53;3.80;;;9.30;99.90;;;;;;5095486;28;20056;-63
2022/12/20 00:38:50;;;;;;;5.75;3.40;;;9.30;99.90;;;;;;5112755;27;20440;-62
2022/12/20 00:41:19;;;;;;;6.70;3.33;;;9.30;99.90;;;;;;5133222;27;20490;-63
2022/12/20 00:43:47;;;;;;;5.15;3.55;;;9.30;99.90;;;;;;5114734;27;20138;-63
2022/12/20 00:46:15;;;;;;;4.38;3.40;;;9.30;99.90;;;;;;5113909;28;20097;-63
2022/12/20 00:48:42;;;;;;;5.65;3.67;;;9.30;99.90;;;;;;5095500;28;20048;-63
2022/12/20 00:51:11;;;;;;;5.30;3.53;;;9.20;99.90;;;;;;5095302;28;20071;-63
2022/12/20 00:53:38;;;;;;;5.60;3.08;;;9.30;99.90;;;;;;5097796;28;20047;-63
2022/12/20 00:56:08;;;;;;;7.53;3.70;;;9.20;99.90;;;;;;5113172;27;20044;-62
2022/12/20 00:58:37;;;;;;;5.43;3.60;;;9.20;99.90;;;;;;5095745;28;20047;-62
2022/12/20 01:01:06;;;;;;;5.95;3.47;;;9.20;99.90;;;;;;5095636;28;20055;-62
2022/12/20 01:03:32;;;;;;;4.90;3.40;;;9.10;99.90;;;;;;5112974;28;20035;-62
2022/12/20 01:06:01;;;;;;;5.05;3.42;;;9.10;99.90;;;;;;5113665;28;20043;-62
2022/12/20 01:08:30;;;;;;;5.95;3.50;;;9.10;99.90;;;;;;5113507;28;20103;-63
2022/12/20 01:11:00;;;;;;;6.78;3.80;;;9.10;99.90;;;;;;5112888;28;20096;-63
2022/12/20 01:13:29;;;;;;;7.88;4.13;;;9.20;99.90;;;;;;5095275;28;20047;-62
2022/12/20 01:15:56;;;;;;;6.63;3.67;;;9.20;99.90;;;;;;5113487;28;20556;-62
2022/12/20 01:18:23;;;;;;;6.18;3.35;;;9.20;99.90;;;;;;5094783;28;20048;-62
2022/12/20 01:21:00;;;;;;;5.30;3.50;;;9.20;99.90;;;;;;5113160;28;20492;-62
2022/12/20 01:23:26;;;;;;;6.70;3.83;;;9.30;99.90;;;;;;5095022;28;20043;-62
2022/12/20 01:25:54;;;;;;;7.53;4.22;;;9.40;99.90;;;;;;5094510;28;20047;-63
2022/12/20 01:28:21;;;;;;;5.75;3.17;;;9.40;99.90;;;;;;5113168;27;20050;-63
2022/12/20 01:30:49;;;;;;;8.73;3.75;;;9.40;99.90;;;;;;5095127;27;20055;-62
2022/12/20 01:33:16;;;;;;;5.45;3.33;;;9.40;99.90;;;;;;5123814;27;20445;-63
2022/12/20 01:35:42;;;;;;;9.27;4.43;;;9.40;99.90;;;;;;5095063;28;20105;-63
2022/12/20 01:38:09;;;;;;;5.72;3.20;;;9.40;99.90;;;;;;5112717;28;20650;-63
2022/12/20 01:40:39;;;;;;;4.97;3.10;;;9.40;99.90;;;;;;5112492;28;20035;-63
2022/12/20 01:43:06;;;;;;;5.82;3.15;;;9.40;99.90;;;;;;5112987;28;20207;-62
2022/12/20 01:45:32;;;;;;;5.70;3.10;;;9.30;99.90;;;;;;5094431;28;20441;-61
2022/12/20 01:48:01;;;;;;;6.05;3.20;;;9.30;99.90;;;;;;5113110;28;20449;-63
2022/12/20 01:50:28;;;;;;;4.50;3.45;;;9.30;99.90;;;;;;5113007;28;20047;-63
2022/12/20 01:52:57;;;;;;;5.00;3.53;;;9.30;99.90;;;;;;5112532;28;20090;-63
2022/12/20 01:55:27;;;;;;;5.45;3.10;;;9.20;99.90;;;;;;5095148;28;20059;-63
2022/12/20 01:57:58;;;;;;;4.88;3.25;;;9.20;99.90;;;;;;5094667;28;20055;-63
2022/12/20 02:00:25;;;;;;;7.22;3.80;;;9.20;99.90;;;;;;5094229;28;20051;-63
2022/12/20 02:02:52;;;;;;;6.65;3.13;;;9.20;99.90;;;;;;5112967;28;20104;-63
2022/12/20 02:05:23;;;;;;;5.70;3.22;;;9.10;99.90;;;;;;5113024;28;20093;-63
2022/12/20 02:07:54;;;;;;;5.45;3.53;;;9.10;99.90;;;;;;5112379;28;20435;-63
2022/12/20 02:10:22;;;;;;;;;;;9.00;99.90;;;;;;5113029;28;20054;-63
2022/12/20 02:12:51;;;;;;;5.03;3.42;;;9.10;99.90;;;;;;5113905;28;19972;-62
2022/12/20 02:15:31;;;;;;;6.97;3.30;;;9.00;99.90;;;;;;5131446;28;20055;-63
2022/12/20 02:18:11;;;;;;;5.38;3.13;;;9.00;99.90;;;;;;5113750;28;20125;-62
2022/12/20 02:21:01;;;;;;;5.68;3.03;;;9.10;99.90;;;;;;5094087;28;20092;-62
2022/12/20 02:23:59;;;;;;;5.05;2.80;;;9.10;99.90;;;;;;5112226;28;20047;-63
2022/12/20 02:26:57;;;;;;;5.38;3.35;;;9.10;99.90;;;;;;5113781;28;20047;-62
2022/12/20 02:29:31;;;;;;;6.00;3.38;;;9.10;99.90;;;;;;5131270;28;20457;-62
2022/12/20 02:32:05;;;;;;;5.60;3.70;;;9.20;99.90;;;;;;5132223;28;20091;-63
2022/12/20 02:34:35;;;;;;;5.45;2.95;;;9.20;99.90;;;;;;5113136;28;20094;-63
2022/12/20 02:37:02;;;;;;;5.00;3.50;;;9.20;99.90;;;;;;5094627;28;20044;-63
2022/12/20 02:39:30;;;;;;;4.88;3.00;;;9.10;99.90;;;;;;5112134;28;20093;-62
2022/12/20 02:42:01;;;;;;;4.78;2.92;;;9.10;99.90;;;;;;5093951;28;20048;-62
2022/12/20 02:47:21;;;;;;;6.72;3.20;;;9.10;99.90;;;;;;5097312;28;20078;-62
2022/12/20 02:49:51;;;;;;;7.47;3.50;;;9.20;99.90;;;;;;5097412;28;20055;-62
2022/12/20 02:52:19;;;;;;;4.38;3.03;;;9.10;99.90;;;;;;5098064;28;20047;-62
2022/12/20 02:54:46;;;;;;;5.38;3.13;;;9.10;99.90;;;;;;5097593;28;20084;-62
2022/12/20 02:57:19;;;;;;;7.03;3.10;;;9.20;99.90;;;;;;5097456;27;20051;-63
2022/12/20 02:59:52;;;;;;;6.07;3.63;;;9.20;99.90;;;;;;5097409;28;20108;-63
2022/12/20 03:02:21;;;;;;;5.43;3.03;;;9.20;99.90;;;;;;5097651;27;20044;-63
2022/12/20 03:04:49;;;;;;;6.13;3.72;;;9.20;99.90;;;;;;5096787;28;20100;-63
2022/12/20 03:07:16;;;;;;;6.07;3.47;;;9.20;99.90;;;;;;5116150;27;20047;-62
2022/12/20 03:09:44;;;;;;;5.78;3.53;;;9.20;99.90;;;;;;5114994;27;20123;-62
2022/12/20 03:12:14;;;;;;;6.95;3.47;;;9.10;99.90;;;;;;5097686;28;20047;-62
2022/12/20 03:14:42;;;;;;;5.63;3.30;;;9.10;99.90;;;;;;5097585;27;20062;-64
2022/12/20 03:17:09;;;;;;;6.13;3.58;;;9.20;99.90;;;;;;5096979;28;20046;-63
2022/12/20 03:19:37;;;;;;;6.25;3.40;;;9.10;99.90;;;;;;5115332;27;20101;-63
2022/12/20 03:22:04;;;;;;;6.35;3.55;;;9.10;99.90;;;;;;5097556;28;20511;-63
2022/12/20 03:24:31;;;;;;;4.78;3.58;;;9.10;99.90;;;;;;5115889;27;20039;-63
2022/12/20 03:26:58;;;;;;;4.97;3.35;;;9.10;99.90;;;;;;5134590;27;20502;-63
2022/12/20 03:29:25;;;;;;;6.32;4.05;;;9.00;99.90;;;;;;5134716;27;20464;-63
2022/12/20 03:31:52;;;;;;;5.20;3.40;;;9.10;99.90;;;;;;5115898;27;20063;-63
2022/12/20 03:34:18;;;;;;;6.78;3.85;;;9.00;99.90;;;;;;5116548;27;20150;-63
2022/12/20 03:36:47;;;;;;;6.38;3.60;;;9.00;99.90;;;;;;5116190;27;20055;-63
2022/12/20 03:39:14;;;;;;;9.60;4.38;;;9.10;99.90;;;;;;5115113;27;20542;-63
2022/12/20 03:41:41;;;;;;;8.65;3.97;;;9.10;99.90;;;;;;5134663;27;20043;-63
2022/12/20 03:44:08;;;;;;;6.93;3.60;;;9.10;99.90;;;;;;5115907;27;20043;-63
2022/12/20 03:46:35;;;;;;;5.43;3.78;;;9.10;99.90;;;;;;5133910;27;20047;-63
2022/12/20 03:49:02;;;;;;;5.07;3.55;;;9.10;99.90;;;;;;5115052;27;20408;-63
2022/12/20 03:51:29;;;;;;;6.68;3.50;;;9.10;99.90;;;;;;5096920;27;20047;-63
2022/12/20 03:53:58;;;;;;;5.43;3.20;;;9.10;99.90;;;;;;5096388;27;20043;-63
2022/12/20 03:56:24;;;;;;;6.10;3.30;;;9.10;99.90;;;;;;5114954;28;20108;-63
2022/12/20 03:58:51;;;;;;;8.25;4.13;;;9.10;99.90;;;;;;5096285;27;20097;-63
2022/12/20 04:01:20;;;;;;;5.70;3.28;;;9.00;99.90;;;;;;5114264;28;20061;-63
2022/12/20 04:03:47;;;;;;;5.28;3.42;;;9.00;99.90;;;;;;5096374;28;20384;-64
2022/12/20 04:06:14;;;;;;;6.75;3.53;;;9.00;99.90;;;;;;5096180;28;20047;-63
2022/12/20 04:08:41;;;;;;;6.05;3.80;;;9.00;99.90;;;;;;5096588;27;20108;-63
2022/12/20 04:11:18;;;;;;;4.75;3.53;;;9.00;99.90;;;;;;5114588;27;20040;-63
2022/12/20 04:13:46;;;;;;;5.55;3.53;;;9.10;99.90;;;;;;5114021;28;20499;-64
2022/12/20 04:16:14;;;;;;;5.60;3.42;;;9.00;99.90;;;;;;5133943;27;20397;-63
2022/12/20 04:18:41;;;;;;;6.05;3.67;;;9.10;99.90;;;;;;5133507;27;20055;-63
2022/12/20 04:21:09;;;;;;;7.30;3.60;;;9.10;99.90;;;;;;5133098;27;20088;-63
2022/12/20 04:23:37;;;;;;;5.20;3.75;;;9.10;99.90;;;;;;5115060;27;20055;-63
2022/12/20 04:26:05;;;;;;;5.72;3.53;;;9.10;99.90;;;;;;5133539;27;20520;-63
2022/12/20 04:28:35;;;;;;;5.95;3.95;;;9.20;99.90;;;;;;5133244;27;20047;-63
2022/12/20 04:31:02;;;;;;;6.63;4.03;;;9.20;99.90;;;;;;5133429;27;20112;-63
2022/12/20 04:33:30;;;;;;;6.72;3.85;;;9.30;99.90;;;;;;5133565;27;20044;-64
2022/12/20 04:35:56;;;;;;;6.10;3.80;;;9.20;99.90;;;;;;5114883;27;20089;-63
2022/12/20 04:38:24;;;;;;;6.05;4.10;;;9.30;99.90;;;;;;5114895;27;20051;-63
2022/12/20 04:40:51;;;;;;;5.55;3.92;;;9.40;99.90;;;;;;5132833;27;20527;-63
2022/12/20 04:43:19;;;;;;;7.25;3.78;;;9.40;99.90;;;;;;5114392;27;20080;-62
2022/12/20 04:45:50;;;;;;;10.20;4.18;;;9.40;99.90;;;;;;5133303;27;20043;-62
2022/12/20 04:48:16;;;;;;;;;;;9.40;99.90;;;;;;5114891;27;20113;-62
2022/12/20 04:50:43;;;;;;;7.70;3.40;;;9.40;99.90;;;;;;5128657;27;19965;-63
2022/12/20 04:55:55;;;;;;;7.53;3.47;;;9.50;99.90;;;;;;5097571;27;20047;-62
2022/12/20 04:58:22;;;;;;;6.13;4.13;;;9.50;99.90;;;;;;5095206;28;20059;-62
2022/12/20 05:00:51;;;;;;;7.15;3.50;;;9.50;99.90;;;;;;5123415;27;20118;-62
2022/12/20 05:03:18;;;;;;;6.53;4.15;;;9.60;99.90;;;;;;5093651;28;20489;-62
2022/12/20 05:05:44;;;;;;;6.85;3.38;;;9.60;99.90;;;;;;5096634;27;20055;-62
2022/12/20 05:08:11;;;;;;;6.88;3.83;;;9.60;99.90;;;;;;5122640;27;20040;-62
2022/12/20 05:10:38;;;;;;;6.38;4.57;;;9.70;99.90;;;;;;5093959;28;20051;-62
2022/12/20 05:13:05;;;;;;;6.55;3.58;;;9.70;99.90;;;;;;5094804;27;20048;-62
2022/12/20 05:15:32;;;;;;;5.00;3.50;;;9.70;99.90;;;;;;5093763;28;20051;-62
2022/12/20 05:18:00;;;;;;;5.60;3.60;;;9.70;99.90;;;;;;5095433;27;20059;-62
2022/12/20 05:20:28;;;;;;;5.68;3.50;;;9.80;99.90;;;;;;5111057;27;20054;-63
2022/12/20 05:28:27;;;;;;;7.25;3.80;;;9.90;99.90;;;;;;5093639;28;20178;-62
2022/12/20 05:30:53;;;;;;;6.63;3.70;;;9.80;99.90;;;;;;5118299;27;20510;-62
2022/12/20 05:33:22;;;;;;;8.20;3.40;;;9.90;99.90;;;;;;5119298;28;21356;-62
2022/12/20 05:35:49;;;;;;;4.97;3.17;;;9.80;99.90;;;;;;5094451;28;20051;-62
2022/12/20 05:38:16;;;;;;;6.10;3.40;;;9.80;99.90;;;;;;5117971;27;20093;-63
2022/12/20 05:40:43;;;;;;;6.88;3.22;;;9.90;99.90;;;;;;5113617;27;20054;-62
2022/12/20 05:43:10;;;;;;;5.78;3.42;;;10.00;99.90;;;;;;5097959;28;20048;-62
2022/12/20 05:45:37;;;;;;;3.95;3.10;;;10.00;99.90;;;;;;5111027;28;20492;-62
2022/12/20 05:48:04;;;;;;;4.70;3.28;;;10.10;99.90;;;;;;5112014;28;20560;-62
2022/12/20 05:50:32;;;;;;;6.03;3.20;;;10.10;99.90;;;;;;5093848;28;20070;-62
2022/12/20 05:52:59;;;;;;;6.68;3.75;;;10.10;99.90;;;;;;5093051;28;20051;-62
2022/12/20 05:55:26;;;;;;;4.50;3.17;;;10.10;99.90;;;;;;5093623;28;20192;-63
2022/12/20 05:57:52;;;;;;;5.05;3.00;;;10.10;99.90;;;;;;5111991;28;20075;-63
2022/12/20 06:00:20;;;;;;;5.53;3.35;;;10.20;99.90;;;;;;5092684;28;20104;-63
2022/12/20 06:02:47;;;;;;;5.15;3.35;;;10.20;99.90;;;;;;5115092;28;20097;-63
2022/12/20 06:05:14;;;;;;;4.82;3.10;;;10.20;99.90;;;;;;5092605;28;20116;-63
2022/12/20 06:07:42;;;;;;;6.22;2.75;;;10.20;99.90;;;;;;5110710;28;20092;-63
2022/12/20 06:10:10;;;;;;;4.47;3.15;;;10.20;99.90;;;;;;5113156;28;20073;-63
2022/12/20 06:12:37;;;;;;;4.32;2.90;;;10.10;99.90;;;;;;5093188;28;20551;-63
2022/12/20 06:15:05;;;;;;;5.78;3.35;;;10.10;99.90;;;;;;5092331;28;20051;-63
2022/12/20 06:17:32;;;;;;;9.02;3.65;;;10.20;99.90;;;;;;5126132;28;20452;-63
2022/12/20 06:19:59;;;;;;;7.72;3.35;;;10.10;99.90;;;;;;5093277;28;20047;-63
2022/12/20 06:22:26;;;;;;;6.55;3.40;;;10.10;99.90;;;;;;5124051;27;20079;-63
2022/12/20 06:24:54;;;;;;;4.78;3.13;;;10.10;99.90;;;;;;5120197;27;20043;-64
2022/12/20 06:27:21;;;;;;;4.97;3.20;;;10.10;99.90;;;;;;5122032;27;20050;-63
2022/12/20 06:29:53;;;;;;;5.15;3.22;;;10.10;99.90;;;;;;5098528;27;20139;-63
2022/12/20 06:32:20;;;;;;;5.75;3.60;;;10.10;99.90;;;;;;5123676;27;20047;-63
2022/12/20 06:34:47;;;;;;;6.35;3.17;;;10.10;99.90;;;;;;5126398;27;20046;-63
2022/12/20 06:37:14;;;;;;;4.53;2.92;;;10.20;99.90;;;;;;5098610;28;20050;-62
2022/12/20 06:39:41;;;;;;;4.30;3.17;;;10.20;99.90;;;;;;5124475;27;20356;-62
2022/12/20 06:42:09;;;;;;;5.35;3.25;;;10.20;99.90;;;;;;5124449;27;20133;-62
2022/12/20 06:44:36;;;;;;;7.65;3.83;;;10.20;99.90;;;;;;5122740;27;20054;-62
2022/12/20 06:47:03;;;;;;;4.28;2.90;;;10.20;99.90;;;;;;5099811;28;20419;-62
2022/12/20 06:49:30;;;;;;;6.85;3.25;;;10.30;99.90;;;;;;5120927;27;20047;-62
2022/12/20 06:51:57;;;;;;;4.50;3.08;;;10.20;99.90;;;;;;5126517;27;20494;-62
2022/12/20 06:54:24;;;;;;;6.22;2.80;;;10.30;99.90;;;;;;5125468;27;20038;-62
2022/12/20 06:56:51;;;;;;;4.75;3.08;;;10.30;99.90;;;;;;5121681;27;20407;-62
2022/12/20 06:59:20;;;;;;;6.47;3.47;;;10.30;99.90;;;;;;5126554;27;20051;-63
2022/12/20 07:01:47;;;;;;;5.82;2.95;;;10.30;99.90;;;;;;5122969;27;20137;-62
2022/12/20 07:04:14;;;;;;;5.15;3.03;;;10.30;99.90;;;;;;5101542;27;20051;-62
2022/12/20 07:06:41;;;;;;;6.05;3.38;;;10.20;99.90;;;;;;5122455;27;20051;-63
2022/12/20 07:09:08;;;;;;;7.45;3.80;;;10.30;99.90;;;;;;5097418;28;20074;-63
2022/12/20 07:11:35;;;;;;;5.22;3.50;;;10.20;99.90;;;;;;5102942;27;20052;-62
2022/12/20 07:14:02;;;;;;;5.28;3.33;;;10.20;99.90;;;;;;5096030;28;20059;-62
2022/12/20 07:16:31;;;;;;;5.63;3.85;;;10.20;99.90;;;;;;5119763;27;20051;-61
2022/12/20 07:18:58;;;;;;;7.78;3.70;;;10.10;99.90;;;;;;5097209;28;20088;-62
2022/12/20 07:21:25;;;;;;;5.18;4.13;;;10.10;99.90;;;;;;5096320;28;20054;-62
2022/12/20 07:23:52;;;;;;;5.28;3.90;;;10.00;99.90;;;;;;5114868;27;20475;-63
2022/12/20 07:26:19;;;;;;;6.35;4.40;;;10.00;99.90;;;;;;5120584;27;20071;-62
2022/12/20 07:28:46;;;;;;;7.00;4.40;;;10.00;99.90;;;;;;5117647;27;20047;-63
2022/12/20 07:31:13;;;;;;;5.53;4.15;;;10.00;99.90;;;;;;5133846;27;20402;-64
2022/12/20 07:33:41;;;;;;;5.15;3.97;;;10.00;99.90;;;;;;5131167;27;20104;-63
2022/12/20 07:36:11;;;;;;;7.18;5.22;;;10.00;99.90;;;;;;5118926;27;20046;-63
2022/12/20 07:38:39;;;;;;;12.63;5.50;;;10.00;99.90;;;;;;5116153;27;20058;-63
2022/12/20 07:41:08;;;;;;;11.07;5.80;;;10.00;99.90;;;;;;5096535;28;20362;-63
2022/12/20 07:43:35;;;;;;;10.98;6.50;;;10.00;99.90;;;;;;5113209;27;20047;-63
2022/12/20 07:46:02;;;;;;;6.13;5.05;;;10.00;99.90;;;;;;5115323;27;20043;-62
2022/12/20 07:48:30;;;;;;;8.45;6.10;;;10.00;99.90;;;;;;5134434;27;20062;-63
2022/12/20 07:51:01;;;;;;;9.32;5.70;;;10.00;99.90;;;;;;5134293;27;20433;-63
2022/12/20 07:53:30;;;;;;;9.50;5.68;;;10.00;99.90;;;;;;5133625;27;20043;-63
2022/12/20 07:55:59;;;;;;;5.82;4.85;;;10.00;99.90;;;;;;5133617;27;20049;-63
2022/12/20 07:58:28;;;;;;;9.25;5.57;;;10.10;99.90;;;;;;5114754;27;20502;-63
2022/12/20 08:00:56;;;;;;;10.00;6.22;;;10.00;99.90;;;;;;5116557;27;20506;-62
2022/12/20 08:03:27;;;;;;;7.78;5.82;;;10.10;99.90;;;;;;5114902;27;20048;-62
2022/12/20 08:05:58;;;;;;;8.10;5.90;;;10.10;99.90;;;;;;5095506;28;20055;-62
2022/12/20 08:15:29;;;;;;;8.20;5.00;;;10.10;99.90;;;;;;5114293;28;20494;-64
2022/12/20 08:17:56;;;;;;;10.73;5.55;;;10.20;99.90;;;;;;5095920;28;20064;-64
2022/12/20 08:20:23;;;;;;;6.90;5.07;;;10.20;99.90;;;;;;5095795;28;20047;-64
2022/12/20 08:22:50;;;;;;;6.90;4.35;;;10.20;99.90;;;;;;5113912;27;20487;-64
2022/12/20 08:25:17;;;;;;;5.40;4.00;;;10.20;99.90;;;;;;5114137;27;20047;-64
2022/12/20 08:27:44;;;;;;;11.27;4.97;;;10.20;99.90;;;;;;5113516;27;20074;-63
2022/12/20 08:30:12;;;;;;;7.35;5.03;;;10.20;99.90;;;;;;5096011;27;20054;-62
2022/12/20 08:32:40;;;;;;;6.70;4.70;;;10.30;99.90;;;;;;5095663;28;20050;-62
2022/12/20 08:35:08;;;;;;;8.90;4.45;;;10.30;99.90;;;;;;5114531;27;20121;-62
2022/12/20 08:37:35;;;;;;;5.32;3.58;;;10.30;99.90;;;;;;5132936;27;20406;-63
2022/12/20 08:40:02;;;;;;;6.60;3.97;;;10.40;99.90;;;;;;5115019;27;20126;-63
2022/12/20 08:42:29;;;;;;;5.15;3.90;;;10.40;99.90;;;;;;5132311;27;20039;-64
2022/12/20 08:44:56;;;;;;;6.95;3.60;;;10.40;99.90;;;;;;5113935;27;20043;-64
2022/12/20 08:47:23;;;;;;;7.60;3.55;;;10.40;99.90;;;;;;5132495;27;20505;-64
2022/12/20 08:49:51;;;;;;;5.25;3.65;;;10.40;99.90;;;;;;5133133;27;20047;-64
2022/12/20 08:52:18;;;;;;;6.03;3.67;;;10.40;99.90;;;;;;5133051;27;20567;-63
2022/12/20 08:54:45;;;;;;;9.40;3.65;;;10.40;99.90;;;;;;5114127;27;20062;-63
2022/12/20 08:57:12;;;;;;;5.30;3.60;;;10.40;99.90;;;;;;5133110;27;20047;-63
2022/12/20 08:59:39;;;;;;;5.00;3.92;;;10.40;99.90;;;;;;5121374;27;20048;-63
2022/12/20 09:02:06;;;;;;;6.55;3.67;;;10.40;99.90;;;;;;5112881;27;20047;-63
2022/12/20 09:04:33;;;;;;;6.70;3.80;;;10.50;99.90;;;;;;5113321;27;20047;-63
2022/12/20 09:07:02;;;;;;;6.90;3.58;;;10.50;99.90;;;;;;5094918;28;20076;-63
2022/12/20 09:09:30;;;;;;;6.72;3.20;;;10.50;99.90;;;;;;5094501;28;20054;-62
2022/12/20 09:11:57;;;;;;;6.78;2.95;;;10.50;99.90;;;;;;5095141;28;20050;-63
2022/12/20 09:14:24;;;;;;;5.55;3.22;;;10.50;99.90;;;;;;5113363;28;20039;-63
2022/12/20 09:16:51;;;;;;;6.03;3.70;;;10.50;99.90;;;;;;5094121;28;20464;-63
2022/12/20 09:19:18;;;;;;;5.38;3.20;;;10.50;99.90;;;;;;5113292;28;20407;-63
2022/12/20 09:21:45;;;;;;;8.25;3.28;;;10.60;99.90;;;;;;5113202;28;20054;-63
2022/12/20 09:24:13;;;;;;;5.45;3.10;;;10.60;99.90;;;;;;5112418;27;20043;-63
2022/12/20 09:26:40;;;;;;;7.03;2.97;;;10.70;99.90;;;;;;5113148;28;20051;-63
2022/12/20 09:29:07;;;;;;;4.55;2.80;;;10.60;99.90;;;;;;5112782;27;20404;-63
2022/12/20 09:31:35;;;;;;;6.03;3.13;;;10.70;99.90;;;;;;5112590;27;20040;-62
2022/12/20 09:34:02;;;;;;;5.72;2.88;;;10.70;99.90;;;;;;5105237;27;20092;-63
2022/12/20 09:36:30;;;;;;;4.47;3.00;;;10.80;99.90;;;;;;5104195;28;20054;-63
2022/12/20 09:38:57;;;;;;;4.25;2.88;;;10.80;99.90;;;;;;5111909;28;20059;-63
2022/12/20 09:41:31;;;;;;;4.15;2.80;;;10.90;99.90;;;;;;5094927;28;20415;-63
2022/12/20 09:44:00;;;;;;;6.07;2.92;;;10.90;99.90;;;;;;5112630;28;20086;-63
2022/12/20 09:46:28;;;;;;;4.15;3.03;;;10.90;99.90;;;;;;5113785;28;20043;-63
2022/12/20 09:48:55;;;;;;;4.68;2.90;;;11.00;99.90;;;;;;5131656;28;20495;-63
2022/12/20 09:51:39;;;;;;;4.93;2.70;;;11.10;99.90;;;;;;5113386;28;20051;-63
2022/12/20 09:54:19;;;;;;;8.38;3.15;;;11.10;99.90;;;;;;5132073;28;20047;-63
2022/12/20 09:56:56;;;;;;;4.15;2.55;;;11.10;99.90;;;;;;5117794;27;20054;-63
2022/12/20 09:59:24;;;;;;;5.35;2.65;;;11.10;99.90;;;;;;5116309;27;20064;-63
2022/12/20 10:01:51;;;;;;;5.03;2.45;;;11.20;99.90;;;;;;5117231;27;20453;-63
2022/12/20 10:04:23;;;;;;;4.43;2.72;;;11.20;99.90;;;;;;5116874;27;20050;-63
2022/12/20 10:07:02;;;;;;;5.45;2.78;;;11.20;99.90;;;;;;5097941;28;20065;-62
2022/12/20 10:09:51;;;;;;;5.78;2.70;;;11.20;99.90;;;;;;5117231;28;20043;-63
2022/12/20 10:12:29;;;;;;;3.97;2.45;;;11.20;99.90;;;;;;5113119;27;20050;-63
2022/12/20 10:15:10;;;;;;;5.22;2.95;;;11.20;99.90;;;;;;5116634;27;20040;-63
2022/12/20 10:17:50;;;;;;;3.83;2.53;;;11.10;99.90;;;;;;5116499;27;20571;-62
2022/12/20 10:20:30;;;;;;;4.43;2.33;;;11.10;99.90;;;;;;5097681;28;20050;-64
2022/12/20 10:23:04;;;;;;;3.25;2.30;;;11.10;99.90;;;;;;5116300;27;20069;-64
2022/12/20 10:25:32;;;;;;;4.22;2.42;;;11.10;99.90;;;;;;5134200;27;20406;-63
2022/12/20 10:28:05;;;;;;;4.93;2.50;;;11.10;99.90;;;;;;5135284;27;20050;-61
2022/12/20 10:30:34;;;;;;;5.30;2.90;;;11.10;99.90;;;;;;5135638;27;20051;-61
2022/12/20 10:33:02;;;;;;;3.53;2.30;;;11.10;99.90;;;;;;5132633;27;20046;-60
2022/12/20 10:35:31;;;;;;;2.83;2.15;;;11.10;99.90;;;;;;5116415;27;20048;-64
2022/12/20 10:38:01;;;;;;;4.97;2.45;;;11.10;99.90;;;;;;5102977;27;20066;-63
2022/12/20 10:40:31;;;;;;;3.97;2.63;;;11.10;99.90;;;;;;5122105;27;20047;-63
2022/12/20 10:43:01;;;;;;;4.65;3.03;;;11.10;99.90;;;;;;5123351;27;20057;-64
2022/12/20 10:45:34;;;;;;;5.47;2.63;;;11.10;99.90;;;;;;5108050;27;20044;-64
2022/12/20 10:48:02;;;;;;;7.50;2.47;;;11.10;99.90;;;;;;5123611;27;20055;-63
2022/12/20 10:50:29;;;;;;;4.28;2.35;;;11.10;99.90;;;;;;5105848;27;20059;-63
2022/12/20 10:53:20;;;;;;;7.30;2.67;;;11.10;99.90;;;;;;5126455;27;20047;-64
2022/12/20 10:55:47;;;;;;;3.58;2.22;;;11.20;99.90;;;;;;5123122;27;20044;-64
2022/12/20 10:58:21;;;;;;;4.10;2.70;;;11.30;99.90;;;;;;5123636;27;20056;-64
2022/12/20 11:00:48;;;;;;;6.97;2.60;;;11.30;99.90;;;;;;5124765;27;20052;-64
2022/12/20 11:03:19;;;;;;;5.18;2.88;;;11.30;99.90;;;;;;5105626;27;20050;-63
2022/12/20 11:05:56;;;;;;;3.88;2.60;;;11.30;99.90;;;;;;5108393;27;20044;-64
2022/12/20 11:08:25;;;;;;;5.32;2.75;;;11.20;99.90;;;;;;5105680;27;20081;-63
2022/12/20 11:11:11;;;;;;;4.55;2.55;;;11.20;99.90;;;;;;5123044;27;20465;-63
2022/12/20 11:13:40;;;;;;;5.53;2.70;;;11.10;99.90;;;;;;5122078;27;20088;-64
2022/12/20 11:16:24;;;;;;;4.05;2.92;;;10.90;99.90;;;;;;5104134;27;20046;-63
2022/12/20 11:18:59;;;;;;;5.13;2.75;;;10.80;99.90;;;;;;5107037;27;20054;-64
2022/12/20 11:21:35;;;;;;;4.22;2.83;;;10.70;99.90;;;;;;5124514;27;20050;-63
2022/12/20 11:24:11;;;;;;;4.63;3.15;;;10.70;99.90;;;;;;5120355;27;20411;-63
2022/12/20 11:26:56;;;;;;;8.52;2.95;;;10.70;99.90;;;;;;5102970;27;20050;-64
2022/12/20 11:29:44;;;;;;;5.88;3.03;;;10.60;99.90;;;;;;5114774;27;20039;-64
2022/12/20 11:32:21;;;;;;;4.75;2.85;;;10.60;99.90;;;;;;5100829;28;20055;-63
2022/12/20 11:34:55;;;;;;;5.38;3.38;;;10.60;99.90;;;;;;5098034;28;20062;-64
2022/12/20 11:37:25;;;;;;;4.47;3.28;;;10.70;99.90;;;;;;5114060;27;20410;-64
2022/12/20 11:40:16;;;;;;;5.85;2.72;;;10.70;99.90;;;;;;5091445;28;20111;-64
2022/12/20 11:43:00;;;;;;;5.47;3.35;;;10.70;99.90;;;;;;5091550;28;20514;-65
2022/12/20 11:45:38;;;;;;;4.72;3.03;;;10.70;99.90;;;;;;5095956;28;20044;-64
2022/12/20 11:48:22;;;;;;;5.13;2.58;;;10.70;99.90;;;;;;5091866;28;20055;-64
2022/12/20 11:50:58;;;;;;;4.30;2.70;;;10.70;99.90;;;;;;5092950;28;20055;-63
2022/12/20 11:53:32;;;;;;;6.45;3.70;;;10.70;99.90;;;;;;5093128;28;20056;-64
2022/12/20 11:56:04;;;;;;;4.85;3.17;;;10.70;99.90;;;;;;5092276;28;20063;-64
2022/12/20 11:58:40;;;;;;;6.63;3.85;;;10.60;99.90;;;;;;5092134;28;20457;-64
2022/12/20 12:01:14;;;;;;;4.65;3.35;;;10.50;99.90;;;;;;5091730;28;20122;-64
2022/12/20 12:03:46;;;;;;;6.20;3.40;;;10.50;99.90;;;;;;5105192;28;20074;-63
2022/12/20 12:06:20;;;;;;;11.48;4.47;;;10.50;99.90;;;;;;5092641;28;20044;-64
2022/12/20 12:08:52;;;;;;;5.20;3.30;;;10.40;99.90;;;;;;5092522;28;20056;-64
2022/12/20 12:11:22;;;;;;;5.40;3.13;;;10.40;99.90;;;;;;5093210;28;20040;-65
2022/12/20 12:13:49;;;;;;;6.00;3.60;;;10.40;99.90;;;;;;5091882;28;20044;-64
2022/12/20 12:16:21;;;;;;;5.78;3.78;;;10.50;99.90;;;;;;5091914;28;20044;-65
2022/12/20 12:18:49;;;;;;;4.78;3.50;;;10.50;99.90;;;;;;5092074;28;20148;-65
2022/12/20 12:21:22;;;;;;;6.88;3.05;;;10.50;99.90;;;;;;5091180;28;20067;-65
2022/12/20 12:24:01;;;;;;;7.55;3.60;;;10.50;99.90;;;;;;5092760;28;20062;-64
2022/12/20 12:26:30;;;;;;;5.50;3.47;;;10.50;99.90;;;;;;5090686;28;20040;-64
2022/12/20 12:28:59;;;;;;;4.57;3.67;;;10.50;99.90;;;;;;5090939;28;20055;-64
2022/12/20 12:31:34;;;;;;;5.72;4.05;;;10.50;99.90;;;;;;5090854;28;20047;-64
2022/12/20 12:34:09;;;;;;;6.30;4.10;;;10.50;99.90;;;;;;5100337;28;20054;-63
2022/12/20 12:37:03;;;;;;;5.57;4.15;;;10.40;99.90;;;;;;5090839;28;20491;-62
2022/12/20 12:39:56;;;;;;;5.50;3.80;;;10.40;99.90;;;;;;5091715;28;20058;-62
2022/12/20 12:43:10;;;;;;;5.43;3.65;;;10.40;99.90;;;;;;5092650;28;20123;-64
2022/12/20 12:45:43;;;;;;;6.55;3.90;;;10.30;99.90;;;;;;5090838;28;20047;-64
2022/12/20 12:48:19;;;;;;;6.00;3.90;;;10.30;99.90;;;;;;5091273;28;20054;-64
2022/12/20 12:50:48;;;;;;;6.50;3.97;;;10.30;99.90;;;;;;5093325;28;20058;-64
2022/12/20 12:53:17;;;;;;;6.32;3.78;;;10.20;99.90;;;;;;5091399;28;20054;-64
2022/12/20 12:55:46;;;;;;;8.02;4.03;;;10.30;99.90;;;;;;5089829;28;20431;-64
2022/12/20 12:58:32;;;;;;;5.80;4.13;;;10.20;99.90;;;;;;5103152;28;20126;-64
2022/12/20 13:01:01;;;;;;;6.70;4.30;;;10.20;99.90;;;;;;5090800;28;20496;-63
2022/12/20 13:03:42;;;;;;;5.05;4.07;;;10.20;99.90;;;;;;5091919;28;20048;-64
2022/12/20 13:06:44;;;;;;;5.72;3.88;;;10.20;99.90;;;;;;5092582;28;20040;-63
2022/12/20 13:09:21;;;;;;;21.70;4.32;;;10.20;99.90;;;;;;5091132;28;20506;-63
2022/12/20 13:11:49;;;;;;;5.55;3.97;;;10.20;99.90;;;;;;5092289;28;20063;-63
2022/12/20 13:14:49;;;;;;;7.72;4.38;;;10.20;99.90;;;;;;5090983;28;20052;-63
2022/12/20 13:17:55;;;;;;;6.53;4.57;;;10.30;99.90;;;;;;5092879;28;20044;-63
2022/12/20 13:20:25;;;;;;;8.45;4.40;;;10.30;99.90;;;;;;5088818;28;20055;-62
2022/12/20 13:23:19;;;;;;;6.47;4.28;;;10.30;99.90;;;;;;5091178;28;20055;-63
2022/12/20 13:25:50;;;;;;;9.52;5.78;;;10.30;99.90;;;;;;5066799;28;20055;-62